Time;durP1;ratioP1;P1;durP2;ratioP2;P2;SDS_P1;SDS_P2;PMS_P1;PMS_P2;Temp;Humidity;BMP_temperature;BMP_pressure;BME280_temperature;BME280_humidity;BME280_pressure;Samples;Min_cycle;Max_cycle;Signal;HPM_P1;HPM_P2
2022/06/17 00:02:09;;;;;;;12.40;8.27;;;20.10;60.60;;;;;;5104915;28;20044;-75
2022/06/17 00:04:34;;;;;;;10.75;7.93;;;20.10;60.70;;;;;;5111601;28;20020;-76
2022/06/17 00:07:06;;;;;;;12.02;9.13;;;20.00;60.70;;;;;;5108777;28;20031;-76
2022/06/17 00:09:35;;;;;;;12.43;8.90;;;19.90;60.70;;;;;;5109471;28;20028;-76
2022/06/17 00:12:01;;;;;;;11.57;8.70;;;19.80;61.30;;;;;;5112268;28;20077;-76
2022/06/17 00:14:33;;;;;;;11.82;8.88;;;19.70;61.60;;;;;;5111178;28;20034;-75
2022/06/17 00:17:03;;;;;;;12.15;8.73;;;19.70;61.90;;;;;;5107268;28;20024;-72
2022/06/17 00:19:29;;;;;;;12.85;8.20;;;19.80;62.30;;;;;;5105262;28;20016;-76
2022/06/17 00:21:55;;;;;;;12.55;9.75;;;19.80;62.40;;;;;;5109562;28;20027;-76
2022/06/17 00:24:29;;;;;;;11.68;9.13;;;19.70;62.50;;;;;;5109317;28;20595;-72
2022/06/17 00:26:55;;;;;;;11.20;8.88;;;19.60;62.60;;;;;;5110656;28;20028;-74
2022/06/17 00:29:23;;;;;;;12.50;9.68;;;19.60;62.80;;;;;;5109551;28;20032;-76
2022/06/17 00:31:49;;;;;;;13.88;9.32;;;19.70;63.30;;;;;;5110549;28;20016;-76
2022/06/17 00:34:15;;;;;;;10.75;8.55;;;19.60;62.50;;;;;;5110518;28;20054;-77
2022/06/17 00:36:42;;;;;;;12.90;10.10;;;19.80;62.30;;;;;;5108252;27;20016;-73
2022/06/17 00:39:20;;;;;;;12.88;9.38;;;19.70;61.70;;;;;;5110467;28;20051;-77
2022/06/17 00:41:48;;;;;;;11.50;8.73;;;19.80;61.70;;;;;;5108586;28;20028;-77
2022/06/17 00:44:42;;;;;;;10.55;8.40;;;19.80;61.50;;;;;;5111426;28;20032;-77
2022/06/17 00:47:35;;;;;;;14.45;10.63;;;19.90;61.90;;;;;;5108671;27;20062;-76
2022/06/17 00:50:19;;;;;;;12.95;9.52;;;19.80;61.80;;;;;;5109860;28;20047;-76
2022/06/17 00:52:56;;;;;;;12.70;10.20;;;19.80;61.60;;;;;;5092418;28;20552;-77
2022/06/17 00:55:36;;;;;;;14.13;10.38;;;19.90;62.00;;;;;;5109058;28;20291;-77
2022/06/17 00:58:12;;;;;;;13.77;10.32;;;19.90;61.80;;;;;;5107996;28;20057;-75
2022/06/17 01:00:38;;;;;;;13.60;9.15;;;19.90;61.30;;;;;;5109478;28;20090;-76
2022/06/17 01:03:09;;;;;;;14.27;10.10;;;19.90;61.30;;;;;;5109138;28;20036;-76
2022/06/17 01:05:44;;;;;;;9.95;8.18;;;19.90;61.70;;;;;;5109916;28;20035;-77
2022/06/17 01:09:57;;;;;;;12.43;8.88;;;20.00;61.50;;;;;;5110101;28;20012;-76
2022/06/17 01:11:07;;;;;;;13.73;9.50;;;20.00;61.50;;;;;;5109574;28;20101;-76
2022/06/17 01:13:34;;;;;;;12.35;9.35;;;20.00;62.20;;;;;;5114278;28;20083;-77
2022/06/17 01:16:00;;;;;;;13.85;9.90;;;20.00;62.20;;;;;;5109303;28;20051;-76
2022/06/17 01:18:28;;;;;;;11.18;8.25;;;20.00;62.50;;;;;;5107757;28;20021;-76
2022/06/17 01:20:55;;;;;;;10.48;8.15;;;19.90;63.00;;;;;;5106879;28;20047;-76
2022/06/17 01:23:22;;;;;;;11.93;8.80;;;20.00;63.50;;;;;;5103682;28;20105;-76
2022/06/17 01:25:48;;;;;;;14.63;9.68;;;19.90;63.60;;;;;;5107732;28;20032;-76
2022/06/17 01:28:16;;;;;;;11.60;8.93;;;19.90;63.30;;;;;;5106971;28;20024;-73
2022/06/17 01:30:45;;;;;;;14.20;9.52;;;19.90;62.90;;;;;;5109102;28;20276;-76
2022/06/17 01:33:18;;;;;;;12.13;9.18;;;19.90;62.50;;;;;;5108048;28;20046;-75
2022/06/17 01:35:54;;;;;;;12.70;10.07;;;19.90;62.50;;;;;;5102153;28;20025;-75
2022/06/17 01:38:22;;;;;;;12.98;10.05;;;19.90;62.50;;;;;;5108165;28;20028;-76
2022/06/17 01:40:48;;;;;;;11.85;9.73;;;19.90;62.60;;;;;;5108503;28;20024;-76
2022/06/17 01:43:17;;;;;;;13.50;10.23;;;19.90;62.60;;;;;;5088444;28;20051;-76
2022/06/17 01:45:56;;;;;;;14.27;9.90;;;19.90;62.50;;;;;;5102719;28;20016;-76
2022/06/17 01:48:25;;;;;;;10.90;9.48;;;19.90;62.30;;;;;;5109022;28;20040;-74
2022/06/17 01:50:53;;;;;;;13.07;10.35;;;19.90;62.70;;;;;;5090895;28;20032;-76
2022/06/17 01:53:23;;;;;;;14.25;9.63;;;19.90;62.90;;;;;;5107088;28;20364;-74
2022/06/17 01:55:56;;;;;;;13.10;9.88;;;19.80;63.40;;;;;;5107933;28;20069;-76
2022/06/17 01:58:39;;;;;;;10.77;8.60;;;19.80;63.70;;;;;;5107466;28;20058;-77
2022/06/17 02:01:06;;;;;;;11.52;8.98;;;19.80;64.00;;;;;;5104962;28;20051;-76
2022/06/17 02:03:36;;;;;;;12.25;9.43;;;19.70;64.00;;;;;;5105985;28;20058;-74
2022/06/17 02:06:11;;;;;;;11.45;10.25;;;19.70;63.90;;;;;;5108058;28;20020;-76
2022/06/17 02:08:37;;;;;;;11.27;9.50;;;19.70;64.40;;;;;;5108965;28;20047;-77
2022/06/17 02:11:05;;;;;;;12.10;9.32;;;19.60;64.60;;;;;;5107568;28;20074;-73
2022/06/17 02:13:32;;;;;;;11.93;10.20;;;19.60;64.90;;;;;;5107402;28;20055;-77
2022/06/17 02:16:03;;;;;;;11.98;9.52;;;19.60;65.00;;;;;;5089124;28;20039;-77
2022/06/17 02:18:30;;;;;;;12.27;9.70;;;19.60;65.50;;;;;;5108980;28;20032;-77
2022/06/17 02:21:01;;;;;;;9.98;8.43;;;19.50;65.50;;;;;;5106908;28;20024;-77
2022/06/17 02:23:28;;;;;;;11.20;8.65;;;19.50;65.40;;;;;;5086682;28;20076;-77
2022/06/17 02:25:55;;;;;;;22.90;10.40;;;19.50;66.10;;;;;;5104346;27;20035;-77
2022/06/17 02:28:24;;;;;;;10.20;8.48;;;19.50;66.50;;;;;;5107699;28;20035;-75
2022/06/17 02:30:50;;;;;;;13.02;9.88;;;19.50;66.70;;;;;;5104384;28;20038;-77
2022/06/17 02:33:18;;;;;;;11.18;9.35;;;19.50;66.10;;;;;;5107833;28;20048;-77
2022/06/17 02:35:56;;;;;;;11.88;9.07;;;19.50;66.20;;;;;;5107044;27;20055;-77
2022/06/17 02:38:25;;;;;;;11.55;8.80;;;19.50;66.50;;;;;;5105891;28;20036;-77
2022/06/17 02:40:58;;;;;;;12.25;10.27;;;19.40;66.60;;;;;;5107238;28;20178;-76
2022/06/17 02:43:29;;;;;;;11.20;8.63;;;19.40;66.70;;;;;;5107544;27;20016;-76
2022/06/17 02:46:05;;;;;;;10.80;8.10;;;19.40;64.90;;;;;;5106721;27;20036;-74
2022/06/17 02:48:43;;;;;;;11.18;8.18;;;19.50;64.00;;;;;;5108263;28;20045;-77
2022/06/17 02:51:11;;;;;;;13.52;7.90;;;19.50;63.70;;;;;;5115933;28;20027;-77
2022/06/17 02:53:39;;;;;;;10.50;6.40;;;19.50;63.40;;;;;;5106943;28;20099;-77
2022/06/17 02:56:13;;;;;;;9.20;6.45;;;19.50;63.70;;;;;;5107846;28;20468;-77
2022/06/17 02:59:18;;;;;;;11.30;7.47;;;19.50;64.50;;;;;;5107842;27;20028;-77
2022/06/17 03:01:43;;;;;;;10.25;7.28;;;19.50;65.00;;;;;;5121428;28;20040;-77
2022/06/17 03:04:18;;;;;;;11.23;7.63;;;19.50;65.10;;;;;;5110160;28;20077;-76
2022/06/17 03:06:45;;;;;;;13.43;7.90;;;19.50;65.20;;;;;;5104815;28;20020;-76
2022/06/17 03:09:19;;;;;;;14.98;7.88;;;19.50;64.30;;;;;;5107092;28;20016;-77
2022/06/17 03:11:51;;;;;;;12.80;8.52;;;19.50;63.70;;;;;;5108711;28;20041;-77
2022/06/17 03:14:17;;;;;;;12.63;7.18;;;19.50;63.50;;;;;;5107066;28;20043;-77
2022/06/17 03:16:44;;;;;;;12.43;6.97;;;19.50;63.40;;;;;;5106905;28;20016;-76
2022/06/17 03:19:11;;;;;;;10.27;7.00;;;19.50;63.60;;;;;;5108837;28;20228;-76
2022/06/17 03:21:37;;;;;;;10.73;7.07;;;19.60;63.20;;;;;;5108028;28;20055;-76
2022/06/17 03:24:16;;;;;;;12.55;7.70;;;19.50;62.80;;;;;;5105955;28;20028;-75
2022/06/17 03:26:53;;;;;;;12.55;6.80;;;19.60;62.40;;;;;;5107252;28;20016;-77
2022/06/17 03:29:21;;;;;;;10.80;5.80;;;19.60;62.70;;;;;;5100928;28;20038;-76
2022/06/17 03:31:52;;;;;;;14.57;7.53;;;19.50;62.20;;;;;;5111425;28;20055;-76
2022/06/17 03:34:23;;;;;;;11.85;7.65;;;19.60;61.40;;;;;;5112876;28;20055;-76
2022/06/17 03:36:58;;;;;;;15.45;7.25;;;19.50;61.10;;;;;;5109912;28;20027;-76
2022/06/17 03:39:34;;;;;;;11.95;6.90;;;19.60;60.90;;;;;;5110540;28;20316;-76
2022/06/17 03:42:22;;;;;;;12.45;7.30;;;19.60;60.90;;;;;;5107913;28;20062;-76
2022/06/17 03:44:55;;;;;;;12.77;6.72;;;19.60;60.50;;;;;;5108244;28;20023;-76
2022/06/17 03:47:40;;;;;;;11.60;6.65;;;19.60;60.60;;;;;;5108547;28;20085;-76
2022/06/17 03:50:08;;;;;;;13.80;7.57;;;19.60;60.60;;;;;;5110048;28;20364;-76
2022/06/17 03:52:48;;;;;;;13.60;6.53;;;19.70;60.70;;;;;;5109079;28;20092;-76
2022/06/17 03:55:16;;;;;;;13.18;6.97;;;19.70;60.50;;;;;;5110972;28;20125;-76
2022/06/17 03:57:44;;;;;;;15.00;7.25;;;19.60;60.40;;;;;;5110406;28;20016;-75
2022/06/17 04:00:33;;;;;;;15.77;8.02;;;19.70;60.50;;;;;;5109243;28;20031;-75
2022/06/17 04:03:01;;;;;;;13.75;7.38;;;19.70;60.40;;;;;;5111353;27;20039;-76
2022/06/17 04:05:27;;;;;;;11.38;6.88;;;19.70;60.90;;;;;;5108686;28;20032;-76
2022/06/17 04:07:53;;;;;;;14.48;6.68;;;19.60;61.00;;;;;;5104603;28;20024;-76
2022/06/17 04:10:23;;;;;;;14.68;7.57;;;19.70;60.90;;;;;;5105889;27;20036;-76
2022/06/17 04:12:51;;;;;;;12.80;6.82;;;19.60;60.90;;;;;;5109344;28;20052;-76
2022/06/17 04:15:26;;;;;;;11.30;6.38;;;19.70;61.00;;;;;;5109082;27;20050;-76
2022/06/17 04:17:53;;;;;;;12.48;6.13;;;19.70;61.00;;;;;;5087607;28;20039;-76
2022/06/17 04:20:33;;;;;;;9.38;6.05;;;19.70;60.10;;;;;;5108717;27;20047;-76
2022/06/17 04:23:21;;;;;;;11.63;6.05;;;19.70;59.60;;;;;;5092523;28;20028;-72
2022/06/17 04:25:58;;;;;;;10.73;6.63;;;19.80;59.90;;;;;;5108207;27;20035;-77
2022/06/17 04:28:48;;;;;;;12.52;6.65;;;19.80;59.70;;;;;;5109405;28;20054;-75
2022/06/17 04:31:20;;;;;;;13.13;7.07;;;19.90;59.20;;;;;;5095232;28;20034;-77
2022/06/17 04:33:52;;;;;;;11.15;6.10;;;20.00;58.90;;;;;;5113001;28;20082;-77
2022/06/17 04:36:23;;;;;;;10.57;6.05;;;20.00;59.50;;;;;;5111101;27;20034;-76
2022/06/17 04:39:01;;;;;;;11.95;6.95;;;20.00;59.30;;;;;;5108091;28;20032;-76
2022/06/17 04:41:35;;;;;;;13.55;7.60;;;20.00;59.20;;;;;;5109165;28;20032;-76
2022/06/17 04:44:03;;;;;;;11.85;7.25;;;20.00;59.40;;;;;;5108421;28;20032;-77
2022/06/17 04:46:38;;;;;;;12.32;7.13;;;20.10;59.40;;;;;;5108141;27;20036;-76
2022/06/17 04:49:10;;;;;;;14.05;7.82;;;20.10;59.80;;;;;;5109016;28;20035;-76
2022/06/17 04:51:36;;;;;;;10.77;6.43;;;20.20;60.30;;;;;;5109612;28;20023;-77
2022/06/17 04:54:04;;;;;;;12.32;6.18;;;20.30;59.70;;;;;;5109303;28;20131;-73
2022/06/17 04:56:38;;;;;;;16.00;6.65;;;20.30;59.50;;;;;;5108385;27;20016;-72
2022/06/17 04:59:22;;;;;;;16.65;7.05;;;20.40;58.50;;;;;;5105318;28;20027;-72
2022/06/17 05:01:49;;;;;;;25.77;8.10;;;20.50;58.10;;;;;;5105871;28;20063;-76
2022/06/17 05:04:16;;;;;;;14.07;7.40;;;20.60;58.20;;;;;;5107000;28;20020;-76
2022/06/17 05:06:42;;;;;;;13.02;7.00;;;20.60;57.50;;;;;;5106382;28;20024;-75
2022/06/17 05:09:23;;;;;;;11.50;6.85;;;20.80;57.30;;;;;;5103568;28;20047;-75
2022/06/17 05:11:53;;;;;;;13.98;6.97;;;21.00;56.90;;;;;;5073681;28;20025;-76
2022/06/17 05:14:39;;;;;;;16.30;7.70;;;21.20;56.80;;;;;;5069074;28;20056;-77
2022/06/17 05:17:05;;;;;;;12.57;7.72;;;21.60;55.00;;;;;;5066893;28;20105;-76
2022/06/17 05:19:30;;;;;;;15.82;8.25;;;21.90;54.60;;;;;;5068654;28;20021;-75
2022/06/17 05:21:56;;;;;;;14.75;6.20;;;22.10;54.20;;;;;;5061946;28;20045;-76
2022/06/17 05:24:22;;;;;;;13.60;7.82;;;22.70;53.20;;;;;;5062854;28;20018;-76
2022/06/17 05:26:49;;;;;;;15.07;7.30;;;22.70;53.00;;;;;;5066827;28;20097;-77
2022/06/17 05:29:15;;;;;;;16.25;7.43;;;22.60;52.50;;;;;;5065486;28;20047;-76
2022/06/17 05:31:41;;;;;;;14.88;6.63;;;22.30;53.30;;;;;;5062931;28;20033;-76
2022/06/17 05:34:06;;;;;;;14.45;7.22;;;22.40;53.80;;;;;;5063791;28;20064;-76
2022/06/17 05:36:32;;;;;;;11.20;6.70;;;22.60;53.60;;;;;;5068364;28;20155;-76
2022/06/17 05:38:58;;;;;;;15.27;6.72;;;23.50;52.00;;;;;;5065668;28;20021;-76
2022/06/17 05:41:24;;;;;;;18.33;6.43;;;24.60;48.50;;;;;;5076605;28;20027;-72
2022/06/17 05:43:51;;;;;;;13.00;5.20;;;25.50;47.20;;;;;;5066293;28;20021;-76
2022/06/17 05:46:17;;;;;;;12.68;4.82;;;26.30;44.10;;;;;;5062996;28;20047;-76
2022/06/17 05:48:43;;;;;;;10.15;4.00;;;26.60;43.80;;;;;;5059076;28;20044;-76
2022/06/17 05:51:11;;;;;;;8.57;4.20;;;27.10;42.80;;;;;;5062843;28;20037;-76
2022/06/17 05:53:36;;;;;;;8.55;3.75;;;27.30;41.60;;;;;;5059271;28;20033;-77
2022/06/17 05:56:02;;;;;;;9.15;4.20;;;27.00;42.80;;;;;;5063087;28;20060;-75
2022/06/17 05:58:28;;;;;;;11.77;5.28;;;26.60;43.60;;;;;;5063774;28;20033;-76
2022/06/17 06:00:54;;;;;;;7.20;4.30;;;26.10;44.40;;;;;;5066642;28;20089;-76
2022/06/17 06:03:25;;;;;;;10.23;5.75;;;25.60;46.10;;;;;;5064747;28;20029;-76
2022/06/17 06:05:51;;;;;;;8.65;4.10;;;25.20;45.90;;;;;;5057895;28;20093;-76
2022/06/17 06:08:17;;;;;;;10.70;3.53;;;25.00;47.90;;;;;;5056977;28;20037;-76
2022/06/17 06:10:43;;;;;;;12.77;3.35;;;24.80;47.90;;;;;;5081405;28;20031;-76
2022/06/17 06:13:18;;;;;;;8.77;3.67;;;24.90;48.00;;;;;;5106245;27;20040;-76
2022/06/17 06:15:46;;;;;;;6.63;3.25;;;24.80;47.60;;;;;;5103396;27;20080;-76
2022/06/17 06:18:16;;;;;;;9.00;3.33;;;24.50;49.00;;;;;;5103610;27;20016;-77
2022/06/17 06:20:41;;;;;;;10.45;3.55;;;24.50;47.90;;;;;;5106062;27;20021;-76
2022/06/17 06:23:07;;;;;;;7.68;3.08;;;24.40;48.30;;;;;;5105825;28;20096;-75
2022/06/17 06:25:33;;;;;;;8.13;3.35;;;24.30;48.10;;;;;;5104550;27;20443;-76
2022/06/17 06:27:59;;;;;;;7.15;3.00;;;24.40;47.30;;;;;;5106791;28;20024;-76
2022/06/17 06:30:30;;;;;;;11.57;3.33;;;24.40;46.50;;;;;;5106992;28;20284;-78
2022/06/17 06:32:59;;;;;;;7.75;3.20;;;24.40;46.60;;;;;;5109068;28;20024;-77
2022/06/17 06:35:30;;;;;;;7.63;3.15;;;24.60;47.00;;;;;;5104551;28;20038;-75
2022/06/17 06:37:56;;;;;;;9.82;3.42;;;24.60;46.70;;;;;;5082350;28;20029;-80
2022/06/17 06:40:22;;;;;;;6.70;2.95;;;24.60;46.50;;;;;;5109206;28;20012;-80
2022/06/17 06:42:49;;;;;;;9.45;3.22;;;24.80;46.60;;;;;;5108993;27;20042;-79
2022/06/17 06:45:20;;;;;;;6.38;3.40;;;24.90;46.90;;;;;;5107561;28;20016;-80
2022/06/17 06:47:46;;;;;;;6.10;3.40;;;25.00;46.10;;;;;;5107944;28;20031;-78
2022/06/17 06:50:16;;;;;;;6.82;3.55;;;25.10;45.70;;;;;;5106339;28;20031;-78
2022/06/17 06:52:42;;;;;;;8.75;3.45;;;25.00;45.00;;;;;;5107116;28;20020;-77
2022/06/17 06:55:09;;;;;;;7.30;3.60;;;25.10;45.20;;;;;;5106162;28;20087;-78
2022/06/17 06:57:41;;;;;;;8.10;3.28;;;25.20;44.20;;;;;;5106717;28;20088;-77
2022/06/17 07:00:08;;;;;;;9.80;3.22;;;25.40;44.00;;;;;;5105984;27;20083;-77
2022/06/17 07:02:33;;;;;;;8.65;3.63;;;25.60;44.80;;;;;;5108111;28;20016;-77
2022/06/17 07:04:59;;;;;;;9.05;3.60;;;25.60;43.70;;;;;;5103962;28;20292;-78
2022/06/17 07:07:25;;;;;;;8.52;3.63;;;25.50;43.70;;;;;;5108186;28;20032;-73
2022/06/17 07:09:51;;;;;;;9.07;3.78;;;25.30;44.00;;;;;;5110473;27;20062;-76
2022/06/17 07:12:17;;;;;;;9.10;3.50;;;25.50;44.40;;;;;;5109293;28;20028;-77
2022/06/17 07:14:43;;;;;;;9.13;3.50;;;25.60;44.50;;;;;;5109522;28;20028;-77
2022/06/17 07:17:10;;;;;;;10.45;4.25;;;25.60;44.00;;;;;;5106722;28;20031;-77
2022/06/17 07:19:36;;;;;;;10.88;3.55;;;25.60;44.50;;;;;;5109459;28;20192;-76
2022/06/17 07:22:02;;;;;;;13.98;4.07;;;25.70;44.80;;;;;;5110463;28;20073;-76
2022/06/17 07:24:28;;;;;;;11.88;4.03;;;25.80;45.00;;;;;;5110301;28;20092;-77
2022/06/17 07:26:54;;;;;;;12.88;4.53;;;25.70;45.30;;;;;;5108636;27;20055;-75
2022/06/17 07:29:19;;;;;;;9.85;4.38;;;25.70;44.90;;;;;;5108025;28;20042;-77
2022/06/17 07:31:45;;;;;;;10.70;4.22;;;25.70;44.80;;;;;;5107820;28;20030;-80
2022/06/17 07:34:11;;;;;;;11.40;4.40;;;25.70;45.10;;;;;;5111336;28;20063;-77
2022/06/17 07:42:05;;;;;;;;;;;25.60;44.80;;;;;;5104277;28;20047;-80
2022/06/17 07:44:31;;;;;;;10.20;3.90;;;25.70;45.10;;;;;;5107695;28;19900;-81
2022/06/17 07:46:57;;;;;;;11.77;4.22;;;26.00;45.00;;;;;;5107435;28;20020;-78
2022/06/17 07:49:22;;;;;;;11.93;3.83;;;26.10;45.10;;;;;;5093739;28;20043;-83
2022/06/17 07:51:48;;;;;;;9.23;3.55;;;26.20;44.90;;;;;;5089889;28;20023;-81
2022/06/17 07:54:15;;;;;;;9.07;3.50;;;26.40;44.80;;;;;;5110776;28;20106;-82
2022/06/17 07:56:40;;;;;;;10.45;4.03;;;26.60;44.70;;;;;;5111013;28;20054;-83
2022/06/17 07:59:06;;;;;;;11.32;4.60;;;26.90;43.30;;;;;;5091817;28;20020;-83
2022/06/17 08:01:32;;;;;;;7.85;3.58;;;27.00;43.00;;;;;;5110984;27;20150;-84
2022/06/17 08:03:57;;;;;;;12.10;4.53;;;27.00;43.70;;;;;;5110756;28;20032;-82
2022/06/17 08:06:23;;;;;;;10.40;3.60;;;27.00;42.80;;;;;;5106029;28;20016;-81
2022/06/17 08:08:49;;;;;;;9.57;4.15;;;27.20;42.10;;;;;;5111313;28;20088;-80
2022/06/17 08:11:15;;;;;;;10.63;3.65;;;27.30;42.20;;;;;;5108860;27;20024;-81
2022/06/17 08:13:41;;;;;;;11.40;3.70;;;27.20;41.70;;;;;;5110970;28;20036;-81
2022/06/17 08:16:11;;;;;;;9.90;3.70;;;27.30;42.30;;;;;;5105402;28;20054;-82
2022/06/17 08:18:37;;;;;;;10.93;4.38;;;27.50;41.90;;;;;;5108920;28;20034;-84
2022/06/17 08:21:03;;;;;;;10.27;3.90;;;27.40;42.10;;;;;;5106512;28;20036;-81
2022/06/17 08:23:29;;;;;;;9.35;3.47;;;27.30;42.50;;;;;;5105081;28;21394;-83
2022/06/17 08:25:57;;;;;;;8.40;3.65;;;27.50;41.80;;;;;;5106978;28;20016;-82
2022/06/17 08:28:23;;;;;;;11.38;3.95;;;27.70;42.00;;;;;;5105784;28;20020;-82
2022/06/17 08:30:52;;;;;;;9.18;4.10;;;27.80;42.00;;;;;;5088177;28;20036;-83
2022/06/17 08:33:25;;;;;;;9.45;3.70;;;27.80;41.20;;;;;;5105992;28;20056;-84
2022/06/17 08:35:51;;;;;;;8.98;3.70;;;28.00;40.40;;;;;;5092401;28;20032;-83
2022/06/17 08:38:24;;;;;;;7.40;3.13;;;28.00;40.30;;;;;;5106231;28;20031;-81
2022/06/17 08:40:53;;;;;;;7.60;3.45;;;28.10;41.00;;;;;;5090800;28;20084;-80
2022/06/17 08:43:37;;;;;;;5.95;3.40;;;28.20;41.30;;;;;;5110089;27;20042;-79
2022/06/17 08:46:17;;;;;;;7.07;3.30;;;28.20;41.10;;;;;;5124842;27;20339;-79
2022/06/17 08:49:16;;;;;;;12.68;3.60;;;28.40;41.70;;;;;;5106921;28;20016;-79
2022/06/17 08:52:09;;;;;;;8.02;3.95;;;28.50;40.40;;;;;;5109995;27;20020;-84
2022/06/17 08:55:01;;;;;;;9.07;3.50;;;28.60;40.70;;;;;;5108894;27;20032;-81
2022/06/17 08:57:51;;;;;;;9.25;4.13;;;28.60;40.70;;;;;;5107584;28;20061;-84
2022/06/17 09:00:58;;;;;;;8.52;4.07;;;28.80;40.50;;;;;;5108003;28;20222;-85
2022/06/17 09:03:41;;;;;;;8.98;3.58;;;29.00;40.90;;;;;;5106410;28;20020;-82
2022/06/17 09:06:36;;;;;;;7.40;3.53;;;29.00;39.80;;;;;;5107878;27;20032;-83
2022/06/17 09:09:08;;;;;;;7.57;3.70;;;29.10;40.80;;;;;;5087648;28;20055;-81
2022/06/17 09:11:48;;;;;;;7.82;3.53;;;29.10;39.60;;;;;;5107031;28;20046;-83
2022/06/17 09:14:36;;;;;;;10.70;3.67;;;29.10;40.60;;;;;;5106242;28;20032;-83
2022/06/17 09:17:25;;;;;;;9.13;3.40;;;29.30;41.50;;;;;;5076216;28;20043;-82
2022/06/17 09:19:54;;;;;;;8.00;3.80;;;29.50;39.20;;;;;;5105975;28;20047;-80
2022/06/17 09:22:27;;;;;;;8.10;3.63;;;29.60;40.20;;;;;;5090730;27;20031;-83
2022/06/17 09:24:56;;;;;;;7.73;3.67;;;29.60;38.70;;;;;;5108721;28;20024;-84
2022/06/17 09:27:28;;;;;;;9.18;3.90;;;29.60;40.60;;;;;;5107595;27;20296;-81
2022/06/17 09:30:00;;;;;;;7.63;3.60;;;29.60;40.20;;;;;;5108981;28;20087;-82
2022/06/17 09:32:42;;;;;;;8.27;3.50;;;29.80;39.30;;;;;;5107338;28;20021;-87
2022/06/17 09:35:12;;;;;;;7.50;3.40;;;29.90;38.80;;;;;;5108608;27;20044;-85
2022/06/17 09:38:06;;;;;;;8.32;3.88;;;30.00;39.70;;;;;;5123150;28;20028;-82
2022/06/17 09:40:44;;;;;;;7.53;3.67;;;30.10;39.00;;;;;;5112197;28;20020;-82
2022/06/17 09:43:19;;;;;;;10.73;3.88;;;30.20;39.20;;;;;;5101690;28;20055;-83
2022/06/17 09:45:56;;;;;;;8.05;3.67;;;30.40;39.10;;;;;;5109357;28;20056;-84
2022/06/17 09:48:39;;;;;;;7.63;3.67;;;30.30;38.90;;;;;;5108443;28;20051;-87
2022/06/17 09:51:20;;;;;;;8.87;4.07;;;30.50;38.80;;;;;;5090308;28;20024;-86
2022/06/17 09:53:56;;;;;;;11.55;3.85;;;30.60;38.60;;;;;;5105022;27;20027;-86
2022/06/17 09:56:48;;;;;;;9.07;3.85;;;30.40;37.90;;;;;;5108538;28;20036;-87
2022/06/17 09:59:29;;;;;;;8.57;3.90;;;30.50;38.40;;;;;;5110311;28;20027;-81
2022/06/17 10:01:58;;;;;;;7.50;3.67;;;30.60;39.00;;;;;;5106071;28;20079;-83
2022/06/17 10:04:25;;;;;;;8.68;3.40;;;31.00;39.30;;;;;;5102956;27;20017;-83
2022/06/17 10:07:20;;;;;;;9.32;3.40;;;31.10;38.20;;;;;;5094782;28;20020;-82
2022/06/17 10:09:57;;;;;;;7.43;3.85;;;31.00;37.20;;;;;;5108239;28;20024;-81
2022/06/17 10:12:51;;;;;;;8.35;3.92;;;30.90;37.40;;;;;;5104140;28;20045;-82
2022/06/17 10:15:23;;;;;;;7.45;3.67;;;30.70;37.60;;;;;;5106756;28;20058;-83
2022/06/17 10:18:32;;;;;;;9.03;3.73;;;30.70;38.30;;;;;;5110360;28;20220;-83
2022/06/17 10:21:28;;;;;;;6.50;3.20;;;30.80;38.70;;;;;;5102798;28;20294;-82
2022/06/17 10:24:00;;;;;;;8.50;3.47;;;30.80;37.00;;;;;;5107600;28;20024;-81
2022/06/17 10:26:49;;;;;;;9.27;3.63;;;30.80;36.80;;;;;;5105480;28;20020;-79
2022/06/17 10:29:31;;;;;;;6.30;3.13;;;30.80;36.30;;;;;;5105654;28;20024;-81
2022/06/17 10:31:58;;;;;;;26.38;8.00;;;30.60;35.10;;;;;;5105649;28;20028;-83
2022/06/17 10:34:27;;;;;;;9.05;3.10;;;30.80;35.30;;;;;;5107666;28;20036;-78
2022/06/17 10:36:54;;;;;;;6.00;3.30;;;31.00;35.60;;;;;;5103899;28;20045;-83
2022/06/17 10:39:23;;;;;;;8.77;3.30;;;31.30;35.00;;;;;;5086938;28;20021;-83
2022/06/17 10:41:50;;;;;;;7.80;3.40;;;31.20;35.00;;;;;;5093618;28;20049;-83
2022/06/17 10:44:21;;;;;;;6.57;2.92;;;31.40;36.00;;;;;;5106329;28;20020;-79
2022/06/17 10:46:59;;;;;;;7.45;2.90;;;31.50;35.60;;;;;;5082489;28;20021;-79
2022/06/17 10:49:47;;;;;;;8.55;3.22;;;31.80;36.40;;;;;;5099781;28;20630;-79
2022/06/17 10:52:20;;;;;;;8.30;3.35;;;31.90;35.10;;;;;;5101906;28;20020;-81
2022/06/17 10:54:49;;;;;;;7.95;3.10;;;31.80;35.60;;;;;;5102940;28;20227;-80
2022/06/17 10:57:37;;;;;;;5.22;2.50;;;31.90;36.10;;;;;;5085298;28;20024;-76
2022/06/17 11:00:22;;;;;;;6.00;2.92;;;32.00;34.80;;;;;;5103473;28;20085;-81
2022/06/17 11:02:47;;;;;;;6.72;3.28;;;32.10;35.10;;;;;;5102772;28;20025;-81
2022/06/17 11:05:31;;;;;;;7.25;2.80;;;32.20;34.60;;;;;;5103218;28;20042;-78
2022/06/17 11:07:57;;;;;;;5.75;2.60;;;32.30;34.70;;;;;;5103870;28;20024;-81
2022/06/17 11:10:29;;;;;;;6.63;2.90;;;32.10;33.20;;;;;;5104116;28;20096;-81
2022/06/17 11:12:58;;;;;;;6.15;2.72;;;32.20;33.60;;;;;;5103387;28;20050;-81
2022/06/17 11:15:33;;;;;;;5.07;2.50;;;32.20;33.70;;;;;;5103651;28;20023;-82
2022/06/17 11:18:04;;;;;;;6.30;2.78;;;32.40;33.40;;;;;;5100979;28;20039;-82
2022/06/17 11:20:32;;;;;;;5.88;2.70;;;32.50;32.40;;;;;;5102303;28;20027;-81
2022/06/17 11:23:25;;;;;;;5.47;2.55;;;32.20;32.30;;;;;;5090133;28;20047;-79
2022/06/17 11:26:06;;;;;;;5.20;2.50;;;32.10;32.30;;;;;;5085188;28;20040;-81
2022/06/17 11:28:36;;;;;;;7.88;2.70;;;32.30;32.50;;;;;;5103601;28;20015;-81
2022/06/17 11:31:12;;;;;;;6.25;2.70;;;32.30;33.40;;;;;;5099580;28;20024;-82
2022/06/17 11:33:53;;;;;;;4.15;2.33;;;32.30;32.20;;;;;;5103094;27;20067;-79
2022/06/17 11:36:27;;;;;;;5.13;2.30;;;32.10;32.30;;;;;;5100149;28;20075;-80
2022/06/17 11:38:53;;;;;;;5.07;2.35;;;32.30;32.60;;;;;;5095471;28;20080;-77
2022/06/17 11:41:23;;;;;;;5.07;2.30;;;32.50;32.90;;;;;;5102210;28;20050;-83
2022/06/17 11:43:49;;;;;;;6.07;2.38;;;32.70;32.70;;;;;;5102782;28;20104;-82
2022/06/17 11:46:22;;;;;;;8.20;2.58;;;32.80;31.70;;;;;;5102633;28;20016;-78
2022/06/17 11:48:56;;;;;;;8.18;2.50;;;32.90;31.20;;;;;;5104595;28;20028;-81
2022/06/17 11:51:25;;;;;;;5.18;2.42;;;33.00;32.00;;;;;;5104911;27;20016;-81
2022/06/17 11:54:01;;;;;;;7.28;2.55;;;33.10;32.00;;;;;;5107490;28;20054;-79
2022/06/17 11:56:42;;;;;;;6.88;2.22;;;33.10;32.00;;;;;;5108157;28;20024;-80
2022/06/17 11:59:15;;;;;;;6.35;2.85;;;32.90;32.50;;;;;;5108279;28;20050;-81
2022/06/17 12:01:59;;;;;;;5.70;2.78;;;33.10;31.90;;;;;;5065850;28;20020;-81
2022/06/17 12:07:59;;;;;;;5.90;2.58;;;33.20;31.70;;;;;;5096667;28;20043;-86
2022/06/17 12:10:36;;;;;;;7.28;2.88;;;33.30;32.10;;;;;;5108765;28;20020;-84
2022/06/17 12:13:21;;;;;;;7.03;2.88;;;33.20;31.70;;;;;;5067197;22;20074;-80
2022/06/17 12:16:00;;;;;;;6.90;2.20;;;33.50;32.00;;;;;;4986985;28;20081;-82
2022/06/17 12:18:37;;;;;;;7.93;2.97;;;33.50;31.40;;;;;;4998347;28;20138;-81
2022/06/17 12:21:11;;;;;;;5.40;2.97;;;33.50;31.70;;;;;;4994599;28;20046;-82
2022/06/17 12:23:57;;;;;;;7.03;2.67;;;33.20;31.70;;;;;;5008566;23;20328;-79
2022/06/17 12:27:01;;;;;;;6.30;2.60;;;33.40;32.40;;;;;;5002796;28;20042;-78
2022/06/17 12:29:52;;;;;;;5.55;2.53;;;33.70;31.40;;;;;;4984833;28;20049;-80
2022/06/17 12:32:36;;;;;;;5.85;2.70;;;33.80;31.70;;;;;;5000397;28;20045;-78
2022/06/17 12:35:13;;;;;;;6.10;3.05;;;33.70;32.10;;;;;;5000876;28;20050;-78
2022/06/17 12:37:56;;;;;;;6.80;2.63;;;33.80;31.50;;;;;;5001804;28;20065;-80
2022/06/17 12:40:21;;;;;;;5.47;2.37;;;33.70;30.90;;;;;;5018187;28;20479;-78
2022/06/17 12:43:07;;;;;;;5.75;2.40;;;33.80;31.60;;;;;;5004741;28;20038;-82
2022/06/17 12:45:45;;;;;;;6.93;2.90;;;33.70;31.40;;;;;;5004553;28;20053;-77
2022/06/17 12:48:27;;;;;;;7.55;2.85;;;33.80;31.70;;;;;;5005200;28;20062;-77
2022/06/17 12:54:17;;;;;;;8.35;2.80;;;34.00;31.00;;;;;;4999964;28;20125;-79
2022/06/17 12:56:58;;;;;;;6.88;2.50;;;34.00;31.10;;;;;;5000133;28;20045;-77
2022/06/17 12:59:47;;;;;;;5.07;2.30;;;34.00;31.70;;;;;;5000030;28;20281;-78
2022/06/17 13:02:30;;;;;;;6.70;2.45;;;33.90;30.70;;;;;;5012834;28;20049;-78
2022/06/17 13:05:13;;;;;;;7.30;2.90;;;33.70;31.60;;;;;;4998925;28;20396;-79
2022/06/17 13:07:56;;;;;;;4.25;2.50;;;33.30;31.90;;;;;;4997140;28;20050;-77
2022/06/17 13:10:40;;;;;;;7.95;2.78;;;33.40;32.20;;;;;;4995347;28;20501;-79
2022/06/17 13:13:18;;;;;;;;;;;33.20;32.20;;;;;;4994854;28;20034;-80
2022/06/17 13:15:56;;;;;;;7.03;2.40;;;33.20;31.90;;;;;;4999854;28;19936;-79
2022/06/17 13:18:49;;;;;;;6.20;2.38;;;33.50;32.90;;;;;;4996413;28;20151;-81
2022/06/17 13:21:27;;;;;;;6.28;2.40;;;33.50;31.20;;;;;;4996661;28;20037;-78
2022/06/17 13:23:58;;;;;;;7.03;2.33;;;33.40;31.50;;;;;;5009837;28;20053;-78